createdAt,value
2023-03-17T00:00:45.863Z,2.15
2023-03-17T00:03:37.368Z,2.30
2023-03-17T00:06:05.756Z,1.63
2023-03-17T00:08:35.982Z,2.15
2023-03-17T00:11:03.715Z,2.17
2023-03-17T00:13:31.114Z,2.00
2023-03-17T00:16:04.838Z,1.73
2023-03-17T00:18:33.479Z,1.88
2023-03-17T00:21:00.883Z,1.48
2023-03-17T00:23:27.890Z,1.70
2023-03-17T00:25:54.966Z,2.00
2023-03-17T00:28:25.512Z,1.80
2023-03-17T00:30:59.334Z,1.73
2023-03-17T00:33:29.562Z,1.65
2023-03-17T00:35:58.578Z,1.67
2023-03-17T00:38:25.969Z,2.42
2023-03-17T00:40:52.957Z,2.22
2023-03-17T00:43:22.419Z,1.92
2023-03-17T00:45:49.592Z,2.15
2023-03-17T00:48:20.763Z,2.70
2023-03-17T00:50:51.044Z,1.33
2023-03-17T00:53:21.534Z,2.35
2023-03-17T00:55:49.200Z,1.70
2023-03-17T00:58:43.911Z,2.00
2023-03-17T01:01:11.429Z,2.00
2023-03-17T01:03:39.480Z,1.73
2023-03-17T01:06:11.345Z,2.33
2023-03-17T01:08:39.704Z,2.10
2023-03-17T01:11:20.851Z,1.92
2023-03-17T01:13:48.121Z,2.00
2023-03-17T01:16:15.764Z,1.70
2023-03-17T01:18:43.606Z,1.67
2023-03-17T01:21:10.763Z,1.40
2023-03-17T01:23:38.057Z,1.80
2023-03-17T01:26:06.625Z,1.75
2023-03-17T01:28:34.457Z,1.80
2023-03-17T01:31:02.829Z,1.50
2023-03-17T01:33:30.937Z,1.80
2023-03-17T01:35:57.884Z,2.15
2023-03-17T01:38:24.930Z,1.77
2023-03-17T01:40:53.380Z,2.15
2023-03-17T01:43:29.477Z,1.90
2023-03-17T01:49:24.957Z,1.88
2023-03-17T01:54:46.538Z,2.22
2023-03-17T01:57:33.299Z,1.58
2023-03-17T02:00:05.501Z,1.77
2023-03-17T02:02:45.917Z,1.85
2023-03-17T02:05:17.935Z,2.03
2023-03-17T02:07:46.173Z,1.83
2023-03-17T02:10:17.531Z,1.88
2023-03-17T02:12:48.543Z,1.80
2023-03-17T02:15:15.611Z,2.03
2023-03-17T02:17:43.090Z,2.33
2023-03-17T02:20:18.798Z,1.95
2023-03-17T02:22:52.539Z,2.15
2023-03-17T02:25:21.494Z,2.53
2023-03-17T02:27:52.550Z,2.17
2023-03-17T02:30:23.350Z,2.15
2023-03-17T02:32:51.164Z,1.83
2023-03-17T02:35:19.592Z,1.55
2023-03-17T02:37:47.044Z,2.05
2023-03-17T02:40:15.700Z,1.73
2023-03-17T02:42:44.133Z,1.98
2023-03-17T02:45:12.914Z,1.73
2023-03-17T02:47:41.415Z,1.92
2023-03-17T02:50:13.215Z,2.30
2023-03-17T02:52:40.142Z,2.03
2023-03-17T02:55:08.310Z,1.90
2023-03-17T02:57:35.478Z,1.80
2023-03-17T03:00:04.231Z,2.05
2023-03-17T03:02:31.274Z,1.35
2023-03-17T03:04:58.285Z,1.90
2023-03-17T03:07:25.290Z,2.30
2023-03-17T03:09:52.298Z,1.67
2023-03-17T03:12:19.252Z,1.98
2023-03-17T03:14:46.221Z,1.90
2023-03-17T03:17:13.292Z,1.90
2023-03-17T03:19:40.737Z,2.40
2023-03-17T03:22:08.385Z,1.85
2023-03-17T03:24:35.712Z,2.40
2023-03-17T03:27:02.782Z,1.63
2023-03-17T03:29:29.974Z,2.67
2023-03-17T03:31:57.046Z,2.10
2023-03-17T03:34:23.998Z,1.80
2023-03-17T03:36:51.026Z,2.30
2023-03-17T03:39:18.016Z,1.83
2023-03-17T03:41:45.246Z,1.92
2023-03-17T03:44:12.400Z,1.73
2023-03-17T03:46:39.511Z,1.70
2023-03-17T03:49:06.484Z,1.67
2023-03-17T03:51:33.670Z,1.63
2023-03-17T03:54:01.404Z,1.67
2023-03-17T03:56:28.376Z,1.70
2023-03-17T03:58:56.491Z,1.65
2023-03-17T04:01:23.547Z,3.00
2023-03-17T04:03:51.344Z,1.50
2023-03-17T04:06:18.312Z,1.60
2023-03-17T04:08:45.909Z,1.63
2023-03-17T04:11:12.979Z,1.40
2023-03-17T04:13:39.984Z,1.40
2023-03-17T04:16:07.622Z,1.38
2023-03-17T04:18:35.632Z,1.75
2023-03-17T04:21:02.740Z,2.40
2023-03-17T04:23:31.477Z,1.90
2023-03-17T04:25:59.141Z,1.58
2023-03-17T04:28:26.210Z,1.73
2023-03-17T04:30:53.261Z,2.03
2023-03-17T04:33:20.362Z,1.77
2023-03-17T04:35:47.428Z,1.52
2023-03-17T04:38:14.477Z,1.80
2023-03-17T04:40:41.635Z,2.03
2023-03-17T04:43:10.283Z,1.83
2023-03-17T04:45:37.819Z,1.98
2023-03-17T04:48:05.909Z,1.70
2023-03-17T04:50:33.421Z,1.35
2023-03-17T04:53:00.832Z,2.78
2023-03-17T04:55:28.057Z,1.40
2023-03-17T04:57:55.062Z,2.03
2023-03-17T05:00:22.347Z,1.30
2023-03-17T05:02:49.397Z,2.05
2023-03-17T05:05:16.577Z,1.85
2023-03-17T05:07:44.918Z,1.65
2023-03-17T05:10:12.699Z,1.60
2023-03-17T05:12:39.784Z,1.50
2023-03-17T05:15:07.508Z,1.85
2023-03-17T05:17:34.454Z,2.05
2023-03-17T05:20:01.475Z,2.17
2023-03-17T05:22:28.428Z,1.38
2023-03-17T05:24:55.417Z,1.77
2023-03-17T05:27:22.677Z,1.42
2023-03-17T05:29:49.796Z,1.67
2023-03-17T05:32:16.853Z,1.90
2023-03-17T05:34:45.060Z,1.52
2023-03-17T05:37:12.898Z,1.83
2023-03-17T05:39:40.480Z,1.88
2023-03-17T05:42:08.530Z,1.55
2023-03-17T05:44:36.214Z,1.77
2023-03-17T05:47:03.405Z,1.75
2023-03-17T05:49:30.922Z,1.75
2023-03-17T05:51:58.924Z,2.15
2023-03-17T05:54:26.054Z,2.63
2023-03-17T05:56:53.156Z,2.20
2023-03-17T05:59:20.745Z,1.92
2023-03-17T06:01:47.729Z,1.92
2023-03-17T06:04:15.552Z,1.67
2023-03-17T06:06:42.819Z,2.67
2023-03-17T06:09:09.830Z,1.60
2023-03-17T06:11:36.904Z,2.20
2023-03-17T06:14:03.993Z,2.13
2023-03-17T06:16:33.188Z,2.13
2023-03-17T06:19:00.307Z,1.67
2023-03-17T06:21:27.448Z,1.77
2023-03-17T06:23:54.595Z,1.80
2023-03-17T06:26:22.015Z,2.05
2023-03-17T06:28:49.012Z,1.85
2023-03-17T06:31:15.964Z,2.13
2023-03-17T06:33:43.791Z,1.90
2023-03-17T06:36:10.902Z,1.50
2023-03-17T06:38:37.889Z,1.60
2023-03-17T06:41:05.158Z,1.50
2023-03-17T06:43:32.653Z,1.70
2023-03-17T06:45:59.633Z,1.30
2023-03-17T06:48:27.083Z,1.83
2023-03-17T06:50:54.584Z,2.50
2023-03-17T06:53:22.080Z,1.42
2023-03-17T06:55:49.050Z,1.50
2023-03-17T06:58:17.007Z,1.98
2023-03-17T07:00:45.445Z,1.70
2023-03-17T07:03:12.587Z,1.77
2023-03-17T07:05:39.553Z,1.58
2023-03-17T07:08:06.820Z,1.77
2023-03-17T07:10:34.440Z,1.73
2023-03-17T07:13:02.504Z,1.58
2023-03-17T07:15:34.693Z,2.33
2023-03-17T07:18:02.515Z,2.00
2023-03-17T07:20:29.609Z,1.85
2023-03-17T07:22:57.299Z,1.90
2023-03-17T07:25:24.417Z,1.98
2023-03-17T07:27:52.020Z,1.73
2023-03-17T07:30:19.411Z,1.80
2023-03-17T07:32:47.947Z,1.95
2023-03-17T07:35:15.589Z,2.30
2023-03-17T07:37:42.962Z,1.70
2023-03-17T07:40:11.150Z,2.65
2023-03-17T07:42:38.753Z,2.67
2023-03-17T07:45:07.990Z,1.65
2023-03-17T07:47:34.978Z,2.13
2023-03-17T07:50:02.173Z,1.83
2023-03-17T07:52:29.160Z,1.67
2023-03-17T07:54:58.089Z,1.98
2023-03-17T07:57:25.156Z,1.85
2023-03-17T07:59:52.201Z,1.65
2023-03-17T08:02:19.647Z,1.70
2023-03-17T08:04:46.975Z,1.27
2023-03-17T08:07:14.716Z,1.50
2023-03-17T08:09:41.874Z,1.67
2023-03-17T08:12:09.527Z,1.65
2023-03-17T08:14:36.597Z,1.63
2023-03-17T08:17:04.900Z,1.83
2023-03-17T08:19:31.985Z,1.80
2023-03-17T08:21:59.250Z,2.00
2023-03-17T08:24:27.052Z,2.30
2023-03-17T08:26:54.147Z,1.83
2023-03-17T08:29:21.244Z,1.67
2023-03-17T08:31:48.294Z,1.70
2023-03-17T08:34:16.319Z,1.73
2023-03-17T08:36:43.646Z,1.58
2023-03-17T08:39:11.066Z,1.58
2023-03-17T08:41:38.661Z,2.17
2023-03-17T08:44:05.715Z,2.70
2023-03-17T08:46:33.177Z,2.00
2023-03-17T08:49:02.054Z,1.80
2023-03-17T08:51:34.475Z,1.60
2023-03-17T08:54:02.659Z,2.08
2023-03-17T08:56:30.077Z,1.67
2023-03-17T08:58:57.464Z,2.13
2023-03-17T09:01:25.029Z,1.55
2023-03-17T09:03:56.968Z,1.35
2023-03-17T09:06:25.530Z,1.30
2023-03-17T09:08:55.617Z,1.73
2023-03-17T09:11:29.102Z,1.60
2023-03-17T09:13:56.571Z,2.00
2023-03-17T09:16:24.815Z,1.58
2023-03-17T09:18:51.982Z,1.90
2023-03-17T09:21:19.678Z,2.35
2023-03-17T09:23:46.947Z,1.95
2023-03-17T09:26:14.078Z,2.15
2023-03-17T09:28:41.836Z,1.85
2023-03-17T09:31:12.332Z,1.98
2023-03-17T09:33:40.835Z,2.13
2023-03-17T09:36:10.198Z,1.83
2023-03-17T09:38:37.469Z,1.60
2023-03-17T09:41:34.232Z,1.92
2023-03-17T09:44:56.438Z,2.60
2023-03-17T09:47:47.934Z,1.70
2023-03-17T09:50:39.590Z,1.98
2023-03-17T09:53:21.167Z,2.13
2023-03-17T09:55:55.130Z,1.63
2023-03-17T09:58:31.915Z,2.08
2023-03-17T10:01:00.983Z,2.13
2023-03-17T10:03:28.125Z,1.90
2023-03-17T10:06:34.565Z,1.80
2023-03-17T10:09:26.594Z,2.28
2023-03-17T10:12:18.543Z,2.22
2023-03-17T10:15:04.492Z,2.33
2023-03-17T10:17:42.157Z,2.08
2023-03-17T10:20:17.846Z,2.20
2023-03-17T10:25:35.882Z,2.35
2023-03-17T10:28:15.003Z,2.33
2023-03-17T10:30:43.502Z,1.85
2023-03-17T10:33:10.879Z,2.08
2023-03-17T10:35:39.603Z,2.42
2023-03-17T10:38:23.633Z,2.03
2023-03-17T10:41:02.378Z,1.85
2023-03-17T10:43:36.200Z,2.10
2023-03-17T10:46:07.407Z,2.13
2023-03-17T10:48:39.786Z,2.00
2023-03-17T10:51:10.507Z,2.40
2023-03-17T10:53:43.845Z,2.70
2023-03-17T10:56:23.716Z,2.25
2023-03-17T10:58:52.787Z,2.58
2023-03-17T11:01:38.478Z,1.80
2023-03-17T11:04:44.039Z,3.45
2023-03-17T11:07:21.960Z,2.55
2023-03-17T11:09:52.513Z,1.90
2023-03-17T11:12:38.320Z,2.53
2023-03-17T11:15:13.654Z,2.22
2023-03-17T11:18:06.774Z,2.25
2023-03-17T11:21:18.618Z,2.65
2023-03-17T11:23:53.213Z,2.38
2023-03-17T11:26:51.883Z,2.60
2023-03-17T11:29:43.283Z,3.05
2023-03-17T11:32:52.581Z,2.10
2023-03-17T11:35:38.432Z,2.58
2023-03-17T11:38:24.610Z,3.17
2023-03-17T11:41:41.709Z,2.30
2023-03-17T11:44:42.886Z,2.38
2023-03-17T11:47:45.751Z,2.80
2023-03-17T11:50:23.540Z,3.08
2023-03-17T11:53:25.086Z,2.67
2023-03-17T11:56:10.942Z,3.10
2023-03-17T11:58:48.404Z,2.90
2023-03-17T12:01:29.563Z,2.50
2023-03-17T12:04:23.406Z,3.55
2023-03-17T12:06:59.324Z,3.72
2023-03-17T12:09:34.445Z,2.92
2023-03-17T12:12:03.248Z,2.42
2023-03-17T12:14:42.233Z,3.08
2023-03-17T12:17:20.053Z,2.97
2023-03-17T12:20:18.371Z,2.47
2023-03-17T12:23:01.466Z,3.20
2023-03-17T12:25:35.019Z,2.63
2023-03-17T12:28:17.676Z,3.28
2023-03-17T12:30:54.333Z,2.75
2023-03-17T12:34:05.187Z,3.20
2023-03-17T12:36:34.893Z,2.92
2023-03-17T12:39:33.161Z,3.65
2023-03-17T12:42:30.740Z,3.58
2023-03-17T12:45:33.947Z,3.65
2023-03-17T12:48:36.996Z,2.42
2023-03-17T12:51:28.774Z,3.17
2023-03-17T12:53:56.129Z,3.08
2023-03-17T12:56:29.124Z,2.95
2023-03-17T12:59:09.169Z,2.90
2023-03-17T13:01:45.892Z,3.00
2023-03-17T13:04:12.841Z,3.08
2023-03-17T13:06:43.803Z,3.10
2023-03-17T13:09:35.837Z,2.97
2023-03-17T13:12:06.746Z,2.67
2023-03-17T13:14:48.260Z,2.60
2023-03-17T13:17:17.893Z,3.35
2023-03-17T13:20:12.406Z,2.83
2023-03-17T13:23:02.126Z,3.05
2023-03-17T13:25:39.256Z,3.15
2023-03-17T13:28:12.182Z,2.95
2023-03-17T13:30:39.102Z,3.83
2023-03-17T13:33:11.481Z,2.67
2023-03-17T13:35:46.370Z,2.70
2023-03-17T13:38:52.522Z,2.90
2023-03-17T13:41:48.964Z,3.25
2023-03-17T13:44:34.224Z,3.10
2023-03-17T13:47:22.832Z,3.17
2023-03-17T13:49:54.004Z,2.83
2023-03-17T13:52:58.186Z,2.80
2023-03-17T13:55:42.797Z,3.33
2023-03-17T13:58:11.580Z,3.70
2023-03-17T14:00:49.020Z,2.90
2023-03-17T14:03:23.256Z,3.50
2023-03-17T14:05:52.705Z,2.55
2023-03-17T14:08:46.020Z,3.58
2023-03-17T14:11:35.620Z,2.88
2023-03-17T14:14:32.600Z,3.15
2023-03-17T14:17:17.654Z,3.42
2023-03-17T14:20:08.729Z,2.70
2023-03-17T14:22:46.145Z,3.30
2023-03-17T14:25:22.793Z,4.03
2023-03-17T14:27:54.218Z,3.42
2023-03-17T14:30:28.674Z,3.60
2023-03-17T14:33:22.557Z,3.42
2023-03-17T14:35:53.941Z,3.63
2023-03-17T14:38:29.963Z,3.97
2023-03-17T14:41:08.297Z,3.50
2023-03-17T14:43:36.649Z,3.35
2023-03-17T14:46:14.945Z,3.92
2023-03-17T14:48:47.326Z,3.20
2023-03-17T14:51:39.231Z,3.33
2023-03-17T14:54:20.261Z,4.00
2023-03-17T14:56:51.510Z,3.95
2023-03-17T14:59:38.377Z,3.50
2023-03-17T15:02:29.154Z,4.43
2023-03-17T15:05:10.904Z,3.60
2023-03-17T15:07:41.811Z,3.88
2023-03-17T15:10:24.710Z,3.97
2023-03-17T15:13:02.117Z,3.88
2023-03-17T15:15:35.966Z,3.88
2023-03-17T15:18:13.810Z,4.15
2023-03-17T15:20:44.345Z,3.45
2023-03-17T15:23:24.981Z,3.40
2023-03-17T15:25:55.920Z,3.58
2023-03-17T15:28:32.080Z,4.30
2023-03-17T15:31:13.233Z,5.18
2023-03-17T15:33:42.099Z,4.47
2023-03-17T15:36:31.346Z,4.10
2023-03-17T15:38:59.362Z,3.97
2023-03-17T15:41:26.739Z,3.95
2023-03-17T15:43:54.024Z,4.50
2023-03-17T15:46:30.907Z,4.47
2023-03-17T15:48:58.828Z,4.43
2023-03-17T15:51:26.564Z,4.43
2023-03-17T15:53:53.673Z,4.72
2023-03-17T15:56:22.329Z,4.28
2023-03-17T15:58:52.372Z,4.30
2023-03-17T16:01:20.236Z,4.18
2023-03-17T16:03:48.731Z,5.15
2023-03-17T16:06:21.328Z,4.85
2023-03-17T16:08:49.885Z,4.55
2023-03-17T16:11:20.395Z,4.75
2023-03-17T16:13:48.042Z,5.22
2023-03-17T16:16:22.082Z,5.18
2023-03-17T16:18:51.749Z,4.82
2023-03-17T16:21:19.361Z,4.78
2023-03-17T16:23:47.679Z,4.90
2023-03-17T16:26:16.895Z,5.30
2023-03-17T16:28:47.600Z,5.20
2023-03-17T16:31:19.322Z,5.00
2023-03-17T16:33:47.142Z,5.65
2023-03-17T16:36:17.754Z,4.75
2023-03-17T16:38:46.048Z,5.10
2023-03-17T16:41:27.537Z,5.20
2023-03-17T16:44:03.344Z,5.50
2023-03-17T16:46:35.536Z,5.45
2023-03-17T16:49:04.309Z,5.35
2023-03-17T16:51:31.544Z,5.20
2023-03-17T16:53:58.651Z,5.47
2023-03-17T16:56:27.404Z,4.72
2023-03-17T16:58:54.609Z,4.93
2023-03-17T17:01:27.905Z,4.70
2023-03-17T17:03:55.967Z,4.95
2023-03-17T17:06:25.704Z,4.40
2023-03-17T17:08:53.082Z,4.20
2023-03-17T17:11:21.628Z,5.30
2023-03-17T17:13:49.966Z,5.50
2023-03-17T17:16:30.006Z,5.97
2023-03-17T17:18:59.204Z,5.03
2023-03-17T17:21:27.089Z,5.57
2023-03-17T17:23:54.734Z,4.75
2023-03-17T17:26:22.478Z,5.28
2023-03-17T17:28:49.838Z,5.57
2023-03-17T17:31:17.454Z,4.70
2023-03-17T17:33:45.121Z,6.18
2023-03-17T17:36:16.816Z,4.95
2023-03-17T17:38:44.334Z,4.90
2023-03-17T17:41:12.929Z,4.32
2023-03-17T17:43:40.459Z,5.22
2023-03-17T17:46:18.534Z,6.10
2023-03-17T17:48:46.237Z,5.55
2023-03-17T17:51:13.817Z,5.45
2023-03-17T17:53:40.933Z,5.03
2023-03-17T17:56:14.309Z,4.75
2023-03-17T17:58:41.838Z,5.47
2023-03-17T18:01:11.824Z,5.65
2023-03-17T18:03:41.614Z,5.55
2023-03-17T18:06:13.256Z,5.47
2023-03-17T18:08:41.716Z,6.18
2023-03-17T18:11:09.254Z,4.60
2023-03-17T18:13:38.975Z,5.32
2023-03-17T18:16:10.222Z,5.70
2023-03-17T18:18:40.677Z,5.18
2023-03-17T18:21:08.239Z,4.95
2023-03-17T18:23:36.504Z,6.32
2023-03-17T18:26:06.062Z,5.45
2023-03-17T18:28:33.332Z,5.53
2023-03-17T18:31:07.668Z,5.63
2023-03-17T18:33:34.727Z,5.57
2023-03-17T18:36:06.010Z,6.10
2023-03-17T18:38:34.147Z,5.35
2023-03-17T18:41:02.325Z,5.68
2023-03-17T18:43:29.338Z,5.45
2023-03-17T18:45:56.480Z,6.63
2023-03-17T18:48:23.528Z,9.07
2023-03-17T18:50:50.975Z,11.00
2023-03-17T18:53:18.058Z,8.40
2023-03-17T18:55:45.407Z,6.72
2023-03-17T18:58:12.837Z,7.15
2023-03-17T19:00:40.023Z,7.28
2023-03-17T19:03:07.391Z,6.85
2023-03-17T19:05:38.471Z,6.15
2023-03-17T19:08:06.656Z,5.38
2023-03-17T19:10:34.424Z,4.65
2023-03-17T19:13:01.391Z,3.53
2023-03-17T19:15:29.076Z,4.10
2023-03-17T19:17:56.168Z,4.30
2023-03-17T19:20:23.270Z,5.85
2023-03-17T19:22:53.267Z,4.47
2023-03-17T19:25:21.494Z,5.20
2023-03-17T19:27:49.274Z,4.72
2023-03-17T19:30:18.714Z,4.55
2023-03-17T19:32:45.917Z,4.15
2023-03-17T19:35:12.965Z,3.20
2023-03-17T19:37:39.952Z,3.22
2023-03-17T19:40:10.328Z,3.75
2023-03-17T19:42:37.393Z,3.00
2023-03-17T19:45:06.069Z,3.70
2023-03-17T19:47:33.082Z,3.40
2023-03-17T19:50:00.135Z,3.03
2023-03-17T19:52:27.153Z,3.28
2023-03-17T19:54:54.197Z,3.00
2023-03-17T19:57:21.288Z,4.32
2023-03-17T19:59:48.327Z,3.40
2023-03-17T20:02:16.882Z,2.83
2023-03-17T20:04:44.341Z,3.65
2023-03-17T20:07:11.600Z,2.80
2023-03-17T20:09:39.360Z,3.60
2023-03-17T20:12:06.640Z,2.83
2023-03-17T20:14:34.110Z,2.72
2023-03-17T20:17:01.103Z,3.17
2023-03-17T20:19:28.054Z,3.90
2023-03-17T20:21:55.389Z,2.05
2023-03-17T20:24:22.654Z,1.70
2023-03-17T20:26:49.750Z,1.88
2023-03-17T20:29:17.577Z,2.22
2023-03-17T20:31:44.560Z,1.55
2023-03-17T20:34:11.804Z,2.28
2023-03-17T20:36:42.403Z,1.55
2023-03-17T20:39:13.747Z,1.55
2023-03-17T20:41:41.368Z,1.45
2023-03-17T20:44:08.475Z,1.50
2023-03-17T20:46:35.681Z,1.35
2023-03-17T20:49:03.100Z,1.27
2023-03-17T20:51:30.138Z,1.40
2023-03-17T20:53:57.258Z,1.45
2023-03-17T20:56:26.555Z,1.13
2023-03-17T20:58:53.589Z,1.17
2023-03-17T21:01:21.759Z,1.35
2023-03-17T21:03:50.246Z,0.93
2023-03-17T21:06:17.762Z,1.20
2023-03-17T21:08:46.136Z,1.50
2023-03-17T21:11:19.606Z,1.85
2023-03-17T21:13:47.091Z,1.70
2023-03-17T21:16:23.951Z,1.52
2023-03-17T21:18:51.672Z,1.73
2023-03-17T21:21:19.795Z,1.10
2023-03-17T21:23:47.603Z,1.38
2023-03-17T21:26:15.419Z,1.23
2023-03-17T21:28:42.959Z,1.10
2023-03-17T21:31:12.209Z,1.20
2023-03-17T21:33:39.819Z,0.98
2023-03-17T21:36:07.605Z,1.63
2023-03-17T21:38:35.757Z,1.00
2023-03-17T21:41:28.013Z,1.35
2023-03-17T21:43:55.257Z,1.73
2023-03-17T21:46:22.166Z,1.10
2023-03-17T21:48:49.720Z,1.70
2023-03-17T21:51:17.242Z,1.35
2023-03-17T21:53:44.674Z,1.40
2023-03-17T21:56:12.639Z,1.20
2023-03-17T21:58:39.892Z,1.23
2023-03-17T22:01:07.653Z,1.42
2023-03-17T22:03:35.960Z,1.52
2023-03-17T22:06:05.438Z,1.60
2023-03-17T22:08:32.772Z,2.00
2023-03-17T22:11:00.159Z,1.48
2023-03-17T22:13:27.265Z,1.63
2023-03-17T22:15:54.275Z,1.52
2023-03-17T22:18:21.284Z,2.20
2023-03-17T22:20:50.164Z,1.92
2023-03-17T22:23:17.178Z,1.88
2023-03-17T22:25:44.886Z,1.45
2023-03-17T22:28:12.003Z,2.47
2023-03-17T22:30:42.215Z,1.70
2023-03-17T22:33:09.923Z,2.40
2023-03-17T22:35:38.212Z,1.70
2023-03-17T22:38:06.906Z,1.90
2023-03-17T22:40:35.677Z,2.00
2023-03-17T22:43:03.184Z,1.92
2023-03-17T22:45:30.409Z,2.38
2023-03-17T22:47:57.653Z,1.77
2023-03-17T22:50:24.998Z,1.55
2023-03-17T22:52:52.073Z,1.92
2023-03-17T22:55:19.201Z,2.00
2023-03-17T22:57:46.178Z,1.83
2023-03-17T23:00:17.023Z,2.53
2023-03-17T23:02:46.416Z,2.40
2023-03-17T23:05:14.618Z,1.92
2023-03-17T23:07:50.354Z,2.78
2023-03-17T23:10:23.158Z,1.80
2023-03-17T23:12:50.795Z,1.88
2023-03-17T23:15:19.741Z,2.38
2023-03-17T23:17:47.515Z,2.58
2023-03-17T23:20:15.440Z,2.25
2023-03-17T23:22:42.957Z,2.10
2023-03-17T23:25:10.594Z,2.40
2023-03-17T23:27:37.599Z,2.33
2023-03-17T23:30:05.900Z,1.58
2023-03-17T23:32:34.283Z,1.85
2023-03-17T23:35:01.394Z,1.80
2023-03-17T23:37:28.333Z,2.47
2023-03-17T23:39:55.386Z,2.10
2023-03-17T23:42:22.452Z,1.83
2023-03-17T23:44:50.343Z,2.88
2023-03-17T23:47:17.958Z,2.42
2023-03-17T23:49:44.992Z,2.00
2023-03-17T23:52:12.194Z,2.42
2023-03-17T23:54:39.571Z,2.60
2023-03-17T23:57:07.722Z,2.38
2023-03-17T23:59:34.927Z,2.45
